createdAt,value
2022-09-29T00:02:29.842Z,6.3
2022-09-29T00:12:30.860Z,6.1
2022-09-29T00:22:31.145Z,6
2022-09-29T00:32:32.081Z,5.9
2022-09-29T00:42:32.412Z,5.8
2022-09-29T00:52:32.696Z,5.7
2022-09-29T01:02:32.916Z,5.5
2022-09-29T01:12:33.625Z,5.4
2022-09-29T01:22:33.976Z,5.3
2022-09-29T01:32:34.115Z,5.2
2022-09-29T01:42:34.335Z,5.2
2022-09-29T01:52:34.607Z,5.1
2022-09-29T02:02:35.202Z,5
2022-09-29T02:12:35.978Z,5
2022-09-29T02:22:36.870Z,5
2022-09-29T02:32:37.089Z,4.9
2022-09-29T02:42:37.479Z,4.7
2022-09-29T02:52:38.101Z,4.6
2022-09-29T03:02:39.135Z,4.5
2022-09-29T03:12:40.167Z,4.5
2022-09-29T03:22:40.433Z,4.4
2022-09-29T03:32:40.794Z,4.3
2022-09-29T03:42:41.410Z,4.2
2022-09-29T03:52:42.045Z,4.2
2022-09-29T04:02:42.690Z,4.1
2022-09-29T04:12:43.076Z,4
2022-09-29T04:22:43.969Z,4
2022-09-29T04:32:44.616Z,4
2022-09-29T04:42:45.007Z,3.9
2022-09-29T04:52:45.806Z,4
2022-09-29T05:02:49.599Z,3.9
2022-09-29T05:12:47.011Z,3.9
2022-09-29T05:22:47.337Z,3.9
2022-09-29T05:32:47.492Z,3.8
2022-09-29T05:42:47.862Z,3.9
2022-09-29T05:52:48.299Z,3.9
2022-09-29T06:02:48.420Z,3.9
2022-09-29T06:12:49.370Z,4
2022-09-29T06:22:49.813Z,4.1
2022-09-29T06:32:50.777Z,4.3
2022-09-29T06:42:51.043Z,4.6
2022-09-29T06:53:02.575Z,4.9
2022-09-29T07:02:52.796Z,5
2022-09-29T07:12:53.466Z,5.3
2022-09-29T07:22:54.197Z,5.5
2022-09-29T07:32:59.617Z,5.9
2022-09-29T07:42:54.787Z,6.4
2022-09-29T07:52:55.771Z,7
2022-09-29T08:02:56.238Z,7.7
2022-09-29T08:12:56.651Z,8.5
2022-09-29T08:22:56.766Z,9.5
2022-09-29T08:32:57.231Z,10.2
2022-09-29T08:42:58.083Z,10.6
2022-09-29T08:52:59.162Z,11
2022-09-29T09:03:00.035Z,11.2
2022-09-29T09:13:00.536Z,11.5
2022-09-29T09:23:00.628Z,11.8
2022-09-29T09:33:00.979Z,12
2022-09-29T09:43:01.370Z,12.6
2022-09-29T09:53:01.879Z,12.9
2022-09-29T10:03:02.261Z,13.1
2022-09-29T10:13:02.832Z,13.7
2022-09-29T10:23:03.111Z,13.9
2022-09-29T10:53:07.039Z,14.5
2022-09-29T11:03:06.080Z,14.6
2022-09-29T11:13:12.396Z,14.7
2022-09-29T11:23:13.103Z,14.6
2022-09-29T11:33:13.309Z,15
2022-09-29T11:43:14.222Z,15
2022-09-29T11:53:15.097Z,15.6
2022-09-29T12:03:15.354Z,15.8
2022-09-29T12:13:15.651Z,15.7
2022-09-29T12:23:16.431Z,16.1
2022-09-29T12:43:17.673Z,17
2022-09-29T13:03:19.005Z,17.8
2022-09-29T13:13:19.235Z,17.6
2022-09-29T13:33:20.790Z,19.5
2022-09-29T13:53:21.574Z,18.4
2022-09-29T14:03:22.184Z,17.1
2022-09-29T14:13:22.840Z,18
2022-09-29T14:23:23.104Z,16.6
2022-09-29T14:33:23.690Z,17.5
2022-09-29T14:43:24.668Z,17.9
2022-09-29T14:53:25.445Z,18.7
2022-09-29T15:03:27.786Z,18.9
2022-09-29T15:13:26.605Z,18.8
2022-09-29T15:23:27.684Z,18.8
2022-09-29T15:33:28.160Z,18.4
2022-09-29T15:43:28.515Z,18.2
2022-09-29T16:13:30.270Z,14.8
2022-09-29T16:23:30.565Z,14.4
2022-09-29T16:33:31.579Z,14.1
2022-09-29T16:53:32.497Z,13.5
2022-09-29T17:03:33.468Z,13.1
2022-09-29T17:13:34.146Z,12.7
2022-09-29T17:33:35.965Z,11.7
2022-09-29T17:43:36.545Z,11.3
2022-09-29T17:53:37.352Z,10.8
2022-09-29T18:03:39.935Z,10.4
2022-09-29T18:13:38.388Z,10
2022-09-29T18:33:39.684Z,9.5
2022-09-29T18:43:40.582Z,9.3
2022-09-29T18:53:40.970Z,9
2022-09-29T19:13:41.359Z,8.6
2022-09-29T19:23:41.870Z,8.3
2022-09-29T19:33:42.797Z,8.1
2022-09-29T19:43:43.020Z,7.9
2022-09-29T19:53:45.748Z,7.7
2022-09-29T20:03:44.775Z,7.6
2022-09-29T20:13:45.908Z,7.4
2022-09-29T20:23:46.291Z,7.3
2022-09-29T20:33:46.891Z,7.1
2022-09-29T20:43:47.460Z,7
2022-09-29T20:53:47.924Z,7.1
2022-09-29T21:03:47.779Z,7.1
2022-09-29T21:13:48.409Z,6.8
2022-09-29T21:33:49.082Z,6.5
2022-09-29T21:53:50.165Z,6.3
2022-09-29T22:03:50.810Z,6.1
2022-09-29T22:13:59.014Z,6
2022-09-29T22:23:52.064Z,6
2022-09-29T22:33:52.874Z,5.9
2022-09-29T22:43:53.061Z,5.8
2022-09-29T22:53:53.911Z,5.7
2022-09-29T23:13:55.491Z,5.5
2022-09-29T23:23:56.351Z,5.4
2022-09-29T23:33:57.363Z,5.3
2022-09-29T23:43:57.446Z,5.3
2022-09-29T23:53:59.563Z,5.3
